Time;durP1;ratioP1;P1;durP2;ratioP2;P2;SDS_P1;SDS_P2;PMS_P1;PMS_P2;Temp;Humidity;BMP_temperature;BMP_pressure;BME280_temperature;BME280_humidity;BME280_pressure;Samples;Min_cycle;Max_cycle;Signal;HPM_P1;HPM_P2
2022/01/21 00:00:14;;;;;;;6.96;1.74;;;;;;;-0.81;92.95;100862.81;2020847;80;20204;-72
2022/01/21 00:03:17;;;;;;;4.94;1.71;;;;;;;-0.85;93.08;100865.06;2022008;77;24736;-72
2022/01/21 00:06:20;;;;;;;4.92;2.01;;;;;;;-0.86;93.22;100876.94;2023012;80;20176;-72
2022/01/21 00:09:22;;;;;;;7.86;1.53;;;;;;;-0.84;93.37;100869.38;2022922;80;20167;-72
2022/01/21 00:12:28;;;;;;;5.66;1.48;;;;;;;-0.88;93.18;100853.00;2023327;80;20243;-72
2022/01/21 00:15:31;;;;;;;5.46;1.70;;;;;;;-0.89;93.41;100853.78;2020814;77;21570;-71
2022/01/21 00:18:37;;;;;;;5.88;1.51;;;;;;;-0.94;93.62;100855.13;2017728;80;20225;-72
2022/01/21 00:31:45;;;;;;;3.81;1.59;;;;;;;-1.00;93.11;100857.28;2015237;77;21066;-72
2022/01/21 00:34:49;;;;;;;3.13;1.43;;;;;;;-1.08;92.85;100861.00;2082999;70;20209;-72
2022/01/21 00:37:51;;;;;;;6.28;2.10;;;;;;;-1.13;92.89;100858.16;2021950;80;20215;-72
2022/01/21 00:41:00;;;;;;;4.08;1.31;;;;;;;-1.16;92.89;100863.06;2021807;80;20167;-72
2022/01/21 00:44:03;;;;;;;3.86;1.40;;;;;;;-1.21;92.80;100864.44;2021101;80;20203;-72
2022/01/21 00:47:06;;;;;;;5.50;1.94;;;;;;;-1.27;92.81;100856.34;2020904;77;20300;-72
2022/01/21 00:50:09;;;;;;;3.90;1.38;;;;;;;-1.28;93.19;100868.22;2022968;80;20171;-72
2022/01/21 00:53:12;;;;;;;6.11;1.54;;;;;;;-1.23;93.63;100858.34;2026713;80;20207;-71
2022/01/21 00:56:15;;;;;;;2.63;1.18;;;;;;;-1.20;93.79;100853.44;2020713;80;20212;-72
2022/01/21 00:59:18;;;;;;;5.84;1.60;;;;;;;-1.16;94.09;100857.97;2023228;80;20264;-72
2022/01/21 01:02:20;;;;;;;6.01;1.27;;;;;;;-1.12;94.30;100869.22;2020509;78;23388;-72
2022/01/21 01:05:24;;;;;;;3.27;1.34;;;;;;;-1.09;94.56;100865.22;2023297;80;20202;-72
2022/01/21 01:08:27;;;;;;;4.68;1.33;;;;;;;-1.05;94.75;100862.09;2022985;80;20204;-72
2022/01/21 01:11:44;;;;;;;5.69;1.44;;;;;;;-1.00;94.80;100857.28;2022896;80;20196;-72
2022/01/21 01:21:30;;;;;;;4.33;1.70;;;;;;;-0.84;94.94;100860.06;2023135;80;20163;-72
2022/01/21 01:27:48;;;;;;;6.84;1.68;;;;;;;-0.80;94.90;100868.78;2023495;80;20203;-72
2022/01/21 01:30:50;;;;;;;5.21;2.30;;;;;;;-0.84;94.68;100869.38;2021614;78;24035;-72
2022/01/21 01:33:58;;;;;;;4.27;1.79;;;;;;;-0.84;94.70;100864.28;2022936;80;20718;-72
2022/01/21 01:37:06;;;;;;;6.27;1.98;;;;;;;-0.80;94.70;100866.22;2022646;80;20159;-72
2022/01/21 01:49:55;;;;;;;5.42;1.27;;;;;;;-0.81;94.66;100885.75;2023354;80;20191;-72
2022/01/21 01:52:58;;;;;;;5.29;2.00;;;;;;;-0.77;94.71;100902.13;2022264;80;20191;-72
2022/01/21 01:56:02;;;;;;;6.34;1.52;;;;;;;-0.73;94.75;100904.06;2022912;80;20226;-72
2022/01/21 01:59:04;;;;;;;3.91;1.74;;;;;;;-0.70;94.73;100894.97;2022848;80;21013;-72
2022/01/21 02:02:13;;;;;;;5.32;1.64;;;;;;;-0.67;94.66;100900.28;2021793;77;22414;-72
2022/01/21 02:05:16;;;;;;;4.09;1.80;;;;;;;-0.66;94.56;100906.25;2022808;80;20376;-72
2022/01/21 02:08:19;;;;;;;5.33;1.81;;;;;;;-0.64;94.72;100897.03;2023040;80;20195;-72
2022/01/21 02:11:22;;;;;;;6.16;1.50;;;;;;;-0.65;94.82;100892.72;2019142;80;20212;-72
2022/01/21 02:14:29;;;;;;;6.88;1.82;;;;;;;-0.64;94.84;100899.59;2022749;80;20197;-72
2022/01/21 02:24:04;;;;;;;3.92;1.52;;;;;;;-0.54;95.13;100912.13;2023359;80;20190;-72
2022/01/21 02:27:07;;;;;;;6.48;1.74;;;;;;;-0.53;95.19;100906.28;2022619;80;20163;-72
2022/01/21 02:30:17;;;;;;;3.32;1.60;;;;;;;-0.53;94.99;100887.53;2020780;80;20175;-72
2022/01/21 02:33:21;;;;;;;5.06;1.68;;;;;;;-0.53;95.14;100885.88;2023782;80;20576;-72
2022/01/21 02:36:25;;;;;;;4.77;1.82;;;;;;;-0.51;95.31;100880.84;2022815;80;20564;-72
2022/01/21 02:39:27;;;;;;;4.57;1.37;;;;;;;-0.46;95.41;100877.78;2022892;80;20155;-72
2022/01/21 02:42:30;;;;;;;4.96;1.42;;;;;;;-0.41;95.46;100878.97;2022404;80;20171;-71
2022/01/21 02:45:33;;;;;;;3.79;1.46;;;;;;;-0.36;95.38;100892.00;2024599;78;20216;-72
2022/01/21 02:48:38;;;;;;;5.36;1.42;;;;;;;-0.31;95.39;100895.75;2022249;80;20285;-72
2022/01/21 02:51:41;;;;;;;3.54;1.58;;;;;;;-0.28;95.31;100888.28;2023185;80;20780;-72
2022/01/21 02:54:44;;;;;;;7.27;1.70;;;;;;;-0.26;95.31;100891.81;2023994;80;20192;-72
2022/01/21 02:57:47;;;;;;;6.54;1.30;;;;;;;-0.26;95.25;100885.81;2023152;80;20716;-72
2022/01/21 03:00:51;;;;;;;7.86;2.34;;;;;;;-0.26;95.17;100889.25;2021289;78;20426;-72
2022/01/21 03:03:54;;;;;;;4.68;1.31;;;;;;;-0.24;95.10;100889.34;2024654;80;20186;-72
2022/01/21 03:06:57;;;;;;;6.87;1.98;;;;;;;-0.26;94.98;100888.38;2024344;80;20227;-72
2022/01/21 03:10:01;;;;;;;4.86;1.63;;;;;;;-0.24;95.21;100897.00;2027328;80;20182;-72
2022/01/21 03:13:03;;;;;;;4.14;1.28;;;;;;;-0.20;95.17;100893.84;2024294;80;20185;-72
2022/01/21 03:16:06;;;;;;;7.70;1.27;;;;;;;-0.17;95.06;100894.94;2021789;78;22765;-72
2022/01/21 03:19:09;;;;;;;7.43;1.63;;;;;;;-0.13;94.91;100891.78;2023694;80;20198;-72
2022/01/21 03:22:12;;;;;;;8.25;2.19;;;;;;;-0.11;94.70;100886.78;2024748;80;20373;-72
2022/01/21 03:25:15;;;;;;;4.37;1.17;;;;;;;-0.11;94.72;100895.31;2024421;80;20344;-72
2022/01/21 03:28:18;;;;;;;3.50;1.57;;;;;;;-0.10;94.70;100894.53;2023836;80;20208;-72
2022/01/21 03:31:21;;;;;;;6.09;1.38;;;;;;;-0.08;94.61;100887.84;2022336;80;21711;-72
2022/01/21 03:34:23;;;;;;;3.78;1.09;;;;;;;-0.08;94.54;100900.59;2024677;80;20167;-72
2022/01/21 03:37:26;;;;;;;4.42;1.20;;;;;;;-0.07;94.61;100897.25;2023348;80;20843;-72
2022/01/21 03:40:30;;;;;;;6.47;1.62;;;;;;;-0.05;94.60;100908.44;2024728;80;20159;-72
2022/01/21 03:43:33;;;;;;;4.13;1.30;;;;;;;-0.04;94.49;100897.44;2025652;80;20187;-72
2022/01/21 03:46:36;;;;;;;6.88;1.29;;;;;;;-0.01;94.47;100891.66;2024350;78;27692;-72
2022/01/21 03:49:48;;;;;;;5.83;1.46;;;;;;;0.01;94.37;100882.44;2025283;80;20284;-72
2022/01/21 03:52:51;;;;;;;3.90;1.38;;;;;;;0.01;94.32;100887.53;2025347;80;20613;-72
2022/01/21 03:55:54;;;;;;;6.31;1.64;;;;;;;0.01;94.31;100884.13;2025462;80;20350;-72
2022/01/21 03:58:57;;;;;;;6.09;1.73;;;;;;;0.02;94.37;100883.31;2025309;80;20427;-72
2022/01/21 04:02:00;;;;;;;5.08;1.21;;;;;;;-0.02;94.34;100888.22;2023409;78;23567;-72
2022/01/21 04:05:04;;;;;;;3.81;1.06;;;;;;;0.01;94.36;100917.31;2025027;80;20657;-72
2022/01/21 04:08:08;;;;;;;5.60;1.18;;;;;;;0.01;94.41;100915.63;2024417;80;20289;-72
2022/01/21 04:11:10;;;;;;;5.17;1.51;;;;;;;0.04;94.38;100918.38;2024511;80;20260;-72
2022/01/21 04:14:13;;;;;;;4.52;1.29;;;;;;;0.03;94.22;100923.38;2023847;80;20183;-72
2022/01/21 04:17:15;;;;;;;4.67;1.24;;;;;;;0.03;94.24;100931.94;2023507;78;20314;-72
2022/01/21 04:20:18;;;;;;;5.34;1.43;;;;;;;0.01;94.28;100927.53;2023458;80;20167;-72
2022/01/21 04:23:22;;;;;;;3.72;1.23;;;;;;;0.05;94.39;100925.25;2023962;80;20220;-72
2022/01/21 04:26:25;;;;;;;6.31;1.01;;;;;;;0.07;94.28;100915.13;2024968;80;20212;-72
2022/01/21 04:29:27;;;;;;;8.17;1.73;;;;;;;0.07;94.28;100925.34;2023619;80;20175;-72
2022/01/21 04:32:31;;;;;;;4.38;1.48;;;;;;;0.08;94.14;100922.88;2023099;78;21415;-72
2022/01/21 04:35:34;;;;;;;3.12;1.02;;;;;;;0.11;94.15;100934.94;2027971;80;20167;-72
2022/01/21 04:38:38;;;;;;;5.72;1.43;;;;;;;0.12;94.07;100937.59;2024555;80;20635;-72
2022/01/21 04:47:14;;;;;;;5.69;1.29;;;;;;;0.14;94.10;100937.69;2024106;80;20368;-72
2022/01/21 04:48:25;;;;;;;5.52;0.87;;;;;;;0.14;94.08;100925.78;2023554;80;20371;-72
2022/01/21 04:51:29;;;;;;;7.94;1.26;;;;;;;0.15;94.01;100931.78;2024678;80;20302;-72
2022/01/21 04:54:34;;;;;;;3.96;0.88;;;;;;;0.15;94.04;100931.78;2023226;80;20599;-72
2022/01/21 04:57:37;;;;;;;3.40;0.95;;;;;;;0.17;94.16;100932.75;2023105;80;20172;-72
2022/01/21 05:00:40;;;;;;;2.97;0.96;;;;;;;0.21;94.28;100932.19;2021661;77;21093;-72
2022/01/21 05:03:45;;;;;;;3.97;1.31;;;;;;;0.18;94.17;100935.44;2028422;79;20232;-72
2022/01/21 05:06:50;;;;;;;3.73;1.12;;;;;;;0.21;94.30;100937.28;2028580;79;20797;-72
2022/01/21 05:09:53;;;;;;;3.34;1.06;;;;;;;0.24;94.27;100945.13;2028874;79;20613;-72
2022/01/21 05:12:55;;;;;;;4.64;1.41;;;;;;;0.24;94.23;100948.56;2028677;79;20299;-72
2022/01/21 05:19:05;;;;;;;6.18;1.87;;;;;;;0.24;94.04;100946.00;2028358;79;20190;-72
2022/01/21 05:22:08;;;;;;;6.21;1.15;;;;;;;0.21;93.94;100940.72;2028484;79;20315;-72
2022/01/21 05:25:16;;;;;;;2.82;0.98;;;;;;;0.20;93.98;100940.63;2028969;79;20448;-72
2022/01/21 05:28:20;;;;;;;8.28;1.93;;;;;;;0.20;94.07;100944.06;2028079;79;21041;-72
2022/01/21 05:31:23;;;;;;;3.99;0.96;;;;;;;0.19;94.01;100949.09;2027024;77;21513;-72
2022/01/21 05:34:26;;;;;;;4.81;1.19;;;;;;;0.18;94.06;100953.31;2028205;79;20230;-72
2022/01/21 05:37:28;;;;;;;6.12;1.21;;;;;;;0.21;94.08;100947.50;2028406;79;20184;-72
2022/01/21 05:40:31;;;;;;;8.65;1.61;;;;;;;0.18;93.98;100952.41;2028259;79;20188;-72
2022/01/21 05:43:46;;;;;;;4.51;1.44;;;;;;;0.18;94.13;100960.97;2028101;79;20326;-72
2022/01/21 05:46:55;;;;;;;5.34;1.40;;;;;;;0.18;94.11;100963.53;2026684;77;21286;-71
2022/01/21 05:49:57;;;;;;;4.18;1.50;;;;;;;0.20;94.07;100982.38;2028508;79;20364;-72
2022/01/21 05:53:04;;;;;;;6.57;1.41;;;;;;;0.21;94.05;100984.16;2028201;79;20246;-72
2022/01/21 05:56:07;;;;;;;3.97;1.30;;;;;;;0.23;94.02;100979.13;2027576;79;20174;-72
2022/01/21 05:59:10;;;;;;;7.34;1.68;;;;;;;0.20;93.88;100976.38;2027770;79;20170;-72
2022/01/21 06:02:12;;;;;;;4.14;1.15;;;;;;;0.18;93.93;100977.94;2026459;77;20202;-72
2022/01/21 06:05:15;;;;;;;7.97;1.27;;;;;;;0.18;94.01;100975.38;2028715;79;21078;-72
2022/01/21 06:08:19;;;;;;;3.41;1.22;;;;;;;0.16;93.95;100967.63;2028146;79;20674;-72
2022/01/21 06:11:21;;;;;;;5.81;1.46;;;;;;;0.16;93.92;100969.28;2028615;79;20178;-72
2022/01/21 06:14:25;;;;;;;8.66;1.46;;;;;;;0.16;93.95;100980.41;2028516;79;20191;-71
2022/01/21 06:17:27;;;;;;;3.13;1.32;;;;;;;0.16;93.99;100977.84;2022133;77;20495;-72
2022/01/21 06:20:30;;;;;;;6.81;1.40;;;;;;;0.17;93.94;100976.16;2022933;80;20167;-72
2022/01/21 06:23:33;;;;;;;6.53;1.54;;;;;;;0.10;93.58;100972.38;2023111;80;20384;-72
2022/01/21 06:26:36;;;;;;;3.89;1.19;;;;;;;0.07;93.79;100982.38;2022996;80;20736;-72
2022/01/21 06:29:39;;;;;;;11.71;1.36;;;;;;;0.06;93.81;100977.19;2022278;80;20308;-72
2022/01/21 06:32:42;;;;;;;6.19;1.30;;;;;;;0.08;93.70;100990.94;2020368;77;20927;-72
2022/01/21 06:35:45;;;;;;;5.13;1.24;;;;;;;0.06;93.56;100992.50;2023014;80;20352;-72
2022/01/21 06:38:47;;;;;;;7.71;1.50;;;;;;;0.05;93.55;100994.19;2023061;80;20239;-72
2022/01/21 06:41:51;;;;;;;2.28;1.12;;;;;;;0.03;93.58;100997.44;2022835;80;20199;-72
2022/01/21 06:44:53;;;;;;;5.86;1.19;;;;;;;-0.02;93.55;100997.13;2022755;80;20232;-72
2022/01/21 06:47:59;;;;;;;5.22;1.14;;;;;;;-0.08;93.61;100992.50;2019031;78;21838;-72
2022/01/21 06:51:02;;;;;;;5.52;1.38;;;;;;;-0.08;93.79;101001.84;2023281;80;20312;-72
2022/01/21 06:54:04;;;;;;;4.22;1.09;;;;;;;-0.08;93.83;101000.16;2023591;80;20200;-72
2022/01/21 06:57:08;;;;;;;3.38;1.20;;;;;;;-0.14;93.70;101002.34;2022640;80;20187;-71
2022/01/21 07:00:13;;;;;;;4.32;1.11;;;;;;;-0.16;93.64;101006.47;2021392;80;20241;-71
2022/01/21 07:03:16;;;;;;;3.10;1.20;;;;;;;-0.19;93.75;101019.00;2022231;78;24382;-71
2022/01/21 07:06:18;;;;;;;5.26;1.09;;;;;;;-0.20;93.82;101022.34;2022877;80;20184;-72
2022/01/21 07:09:21;;;;;;;5.73;1.29;;;;;;;-0.21;93.76;101033.34;2022717;80;20179;-72
2022/01/21 07:12:23;;;;;;;5.31;1.94;;;;;;;-0.27;93.65;101049.94;2022714;80;21013;-72
2022/01/21 07:15:26;;;;;;;4.78;1.62;;;;;;;-0.25;93.81;101044.16;2021267;78;23785;-70
2022/01/21 07:18:29;;;;;;;8.06;1.60;;;;;;;-0.27;93.74;101048.28;2022431;80;20268;-70
2022/01/21 07:21:31;;;;;;;8.20;1.77;;;;;;;-0.25;93.87;101044.16;2022934;80;20208;-70
2022/01/21 07:24:34;;;;;;;6.06;1.51;;;;;;;-0.23;93.86;101039.13;2022892;80;20221;-70
2022/01/21 07:27:36;;;;;;;4.39;1.11;;;;;;;-0.26;93.85;101044.94;2022600;80;20175;-72
2022/01/21 07:30:39;;;;;;;7.32;1.22;;;;;;;-0.23;94.14;101057.88;2021036;78;21878;-72
2022/01/21 07:33:42;;;;;;;3.61;1.13;;;;;;;-0.19;94.34;101064.94;2022859;80;20662;-72
2022/01/21 07:36:45;;;;;;;4.99;1.42;;;;;;;-0.15;94.38;101049.09;2023148;80;20191;-72
2022/01/21 07:39:48;;;;;;;6.36;1.44;;;;;;;-0.13;94.37;101050.06;2022389;80;20952;-72
2022/01/21 07:42:50;;;;;;;6.68;1.50;;;;;;;-0.11;94.39;101052.72;2022760;80;20739;-72
2022/01/21 07:45:53;;;;;;;6.30;1.47;;;;;;;-0.08;94.47;101051.22;2020765;77;23379;-72
2022/01/21 07:48:57;;;;;;;5.22;1.30;;;;;;;-0.06;94.49;101044.56;2022404;80;20547;-70
2022/01/21 07:52:01;;;;;;;10.02;2.14;;;;;;;-0.02;94.60;101051.63;2022103;80;20175;-70
2022/01/21 07:55:04;;;;;;;6.88;1.89;;;;;;;0.03;94.66;101046.81;2022873;80;20345;-70
2022/01/21 07:58:06;;;;;;;4.14;1.22;;;;;;;0.06;94.58;101049.56;2021666;80;20180;-70
2022/01/21 08:01:09;;;;;;;5.26;1.65;;;;;;;0.07;94.57;101042.78;2020522;78;20290;-73
2022/01/21 08:04:12;;;;;;;6.74;1.22;;;;;;;0.10;94.65;101048.97;2023131;80;21139;-70
2022/01/21 08:07:15;;;;;;;10.29;1.76;;;;;;;0.16;94.67;101043.34;2022520;80;20179;-71
2022/01/21 08:10:17;;;;;;;4.27;1.70;;;;;;;0.18;94.49;101046.91;2022855;80;20227;-70
2022/01/21 08:13:20;;;;;;;5.10;1.31;;;;;;;0.20;94.44;101053.91;2022023;80;20171;-70
2022/01/21 08:16:23;;;;;;;3.53;1.34;;;;;;;0.27;94.59;101047.50;2021105;77;21126;-70
2022/01/21 08:19:25;;;;;;;6.31;1.46;;;;;;;0.30;94.57;101069.00;2022750;80;20281;-70
2022/01/21 08:22:28;;;;;;;9.24;1.77;;;;;;;0.38;94.59;101056.72;2022160;80;20184;-71
2022/01/21 08:25:31;;;;;;;4.88;1.51;;;;;;;0.43;94.44;101062.13;2022932;80;20190;-72
2022/01/21 08:28:33;;;;;;;5.14;1.42;;;;;;;0.46;94.32;101065.75;2022355;80;20400;-72
2022/01/21 08:31:36;;;;;;;5.57;1.40;;;;;;;0.49;94.26;101065.03;2022167;79;21903;-72
2022/01/21 08:34:39;;;;;;;6.47;1.24;;;;;;;0.54;94.32;101064.56;2023199;80;20344;-72
2022/01/21 08:37:42;;;;;;;6.13;1.30;;;;;;;0.61;94.18;101053.03;2023655;80;20396;-73
2022/01/21 08:40:45;;;;;;;5.28;1.48;;;;;;;0.66;94.18;101056.75;2023153;80;20333;-73
2022/01/21 08:43:48;;;;;;;4.61;1.24;;;;;;;0.72;94.12;101064.81;2023974;80;20324;-72
2022/01/21 08:46:50;;;;;;;7.06;1.36;;;;;;;0.80;94.11;101065.28;2020973;77;22891;-72
2022/01/21 08:50:17;;;;;;;4.72;1.51;;;;;;;0.87;94.05;101070.84;2027875;79;20304;-72
2022/01/21 08:53:39;;;;;;;7.32;1.14;;;;;;;0.96;93.80;101067.09;2028650;79;20360;-72
2022/01/21 08:56:43;;;;;;;5.31;1.58;;;;;;;0.96;93.41;101075.66;2028121;79;20299;-72
2022/01/21 08:59:48;;;;;;;6.39;1.31;;;;;;;1.02;93.33;101083.69;2029609;79;20342;-72
2022/01/21 09:02:51;;;;;;;7.51;1.55;;;;;;;1.10;93.22;101081.63;2021864;79;21400;-72
2022/01/21 09:05:54;;;;;;;10.09;1.60;;;;;;;1.15;93.00;101091.31;2024097;80;20755;-73
2022/01/21 09:08:57;;;;;;;7.47;1.67;;;;;;;1.26;92.83;101088.50;2026216;80;20328;-72
2022/01/21 09:12:00;;;;;;;7.01;1.86;;;;;;;1.36;92.49;101085.72;2024539;80;20859;-73
2022/01/21 09:15:04;;;;;;;8.56;2.01;;;;;;;1.46;92.28;101083.81;2022092;79;20312;-73
2022/01/21 09:18:07;;;;;;;5.32;1.61;;;;;;;1.68;92.29;101077.38;2022332;77;21890;-72
2022/01/21 09:21:10;;;;;;;7.11;1.80;;;;;;;2.17;92.43;101075.06;2022299;80;20966;-72
2022/01/21 09:24:13;;;;;;;6.99;1.92;;;;;;;2.72;91.01;101063.59;2024705;80;20357;-73
2022/01/21 09:27:15;;;;;;;6.49;2.28;;;;;;;3.20;88.79;101070.41;2021358;80;20341;-73
2022/01/21 09:30:18;;;;;;;7.78;1.94;;;;;;;3.59;86.16;101076.72;2019399;78;22035;-72
2022/01/21 09:33:21;;;;;;;7.40;1.89;;;;;;;3.85;83.26;101077.13;2022168;80;20352;-72
2022/01/21 09:36:24;;;;;;;6.65;2.96;;;;;;;3.84;81.56;101075.38;2022042;80;21425;-73
2022/01/21 09:39:28;;;;;;;5.72;1.71;;;;;;;3.88;80.37;101075.59;2022295;80;20340;-73
2022/01/21 09:42:33;;;;;;;7.71;2.36;;;;;;;4.04;78.67;101081.50;2023211;80;20292;-72
2022/01/21 09:45:37;;;;;;;6.13;1.39;;;;;;;4.32;77.57;101073.44;2021400;78;21790;-72
2022/01/21 09:48:53;;;;;;;6.99;2.20;;;;;;;4.64;76.40;101064.63;2021306;80;20387;-73
2022/01/21 09:52:03;;;;;;;9.85;1.27;;;;;;;4.78;75.00;101076.44;2022394;80;20349;-73
2022/01/21 09:55:12;;;;;;;8.56;2.40;;;;;;;4.72;75.20;101082.19;2021963;80;20373;-73
2022/01/21 09:58:15;;;;;;;8.56;2.11;;;;;;;4.50;74.77;101082.03;2022378;80;20393;-72
2022/01/21 10:01:19;;;;;;;7.36;1.76;;;;;;;4.55;74.97;101088.25;2020120;77;22586;-72
2022/01/21 10:04:28;;;;;;;12.29;2.63;;;;;;;4.62;74.18;101099.69;2021575;80;20381;-73
2022/01/21 10:07:34;;;;;;;7.71;1.71;;;;;;;4.63;73.84;101094.63;2022643;80;20385;-73
2022/01/21 10:10:40;;;;;;;8.81;1.95;;;;;;;4.91;74.49;101088.19;2022060;80;20171;-73
2022/01/21 10:13:45;;;;;;;6.11;1.84;;;;;;;5.16;72.49;101091.03;2022208;80;20360;-73
2022/01/21 10:16:48;;;;;;;8.57;1.60;;;;;;;5.15;72.28;101077.28;2020171;77;23358;-73
2022/01/21 10:19:52;;;;;;;7.26;2.00;;;;;;;5.08;72.25;101087.25;2021285;80;20296;-73
2022/01/21 10:23:00;;;;;;;9.09;2.03;;;;;;;5.08;72.58;101083.00;2021869;80;20362;-73
2022/01/21 10:26:16;;;;;;;8.30;2.21;;;;;;;5.14;71.96;101088.41;2022097;80;20312;-73
2022/01/21 10:29:20;;;;;;;8.73;1.95;;;;;;;5.16;72.03;101080.75;2020779;80;20217;-73
2022/01/21 10:32:41;;;;;;;8.32;1.46;;;;;;;5.15;70.91;101087.59;2020456;78;22914;-73
2022/01/21 10:36:24;;;;;;;8.65;1.63;;;;;;;5.07;71.40;101088.06;2016764;80;20390;-73
2022/01/21 10:39:30;;;;;;;9.94;1.88;;;;;;;4.94;71.38;101086.63;2016085;80;20382;-73
2022/01/21 10:42:32;;;;;;;4.50;1.30;;;;;;;4.81;71.61;101090.31;2017279;80;20331;-73
2022/01/21 10:45:53;;;;;;;4.99;1.51;;;;;;;4.84;71.75;101097.31;2014010;77;25168;-73
2022/01/21 10:48:58;;;;;;;5.32;1.70;;;;;;;4.77;71.28;101088.44;2016582;80;20317;-73
2022/01/21 10:52:02;;;;;;;7.19;1.60;;;;;;;4.69;70.32;101081.19;2016501;80;20850;-73
2022/01/21 10:55:26;;;;;;;7.14;2.03;;;;;;;4.60;71.11;101091.03;2016520;80;20361;-73
2022/01/21 10:58:38;;;;;;;10.21;2.16;;;;;;;4.60;71.87;101086.75;2016606;80;20389;-73
2022/01/21 11:01:40;;;;;;;6.32;1.55;;;;;;;4.59;72.23;101078.97;2014708;77;20905;-73
2022/01/21 11:04:44;;;;;;;7.16;1.75;;;;;;;4.59;72.59;101076.41;2016134;80;20394;-73
2022/01/21 11:07:46;;;;;;;11.82;3.30;;;;;;;4.58;72.17;101082.38;2012546;80;20762;-73
2022/01/21 11:10:51;;;;;;;5.65;1.73;;;;;;;4.52;71.36;101073.56;2015940;80;20397;-73
2022/01/21 11:13:53;;;;;;;6.32;1.89;;;;;;;4.57;72.08;101073.75;2016493;80;20305;-73
2022/01/21 11:17:05;;;;;;;9.88;1.76;;;;;;;4.65;72.30;101071.53;2017448;77;21487;-73
2022/01/21 11:20:31;;;;;;;7.39;2.19;;;;;;;4.80;72.45;101072.25;2020904;80;20391;-73
2022/01/21 11:23:35;;;;;;;6.41;1.66;;;;;;;4.89;71.06;101067.53;2022146;80;20431;-73
2022/01/21 11:26:39;;;;;;;3.31;1.60;;;;;;;5.03;70.62;101066.47;2021532;80;20365;-72
2022/01/21 11:29:44;;;;;;;6.14;2.16;;;;;;;5.24;69.76;101063.94;2017300;80;20349;-73
2022/01/21 11:32:47;;;;;;;8.84;1.60;;;;;;;5.33;70.00;101068.59;2020005;77;21340;-73
2022/01/21 11:35:51;;;;;;;4.85;1.29;;;;;;;5.23;67.67;101074.19;2026448;79;20356;-73
2022/01/21 11:38:55;;;;;;;7.51;1.75;;;;;;;5.16;67.99;101060.16;2027019;80;20419;-73
2022/01/21 11:42:00;;;;;;;4.53;1.42;;;;;;;5.08;67.97;101061.50;2027236;80;20391;-73
2022/01/21 11:45:18;;;;;;;7.45;1.60;;;;;;;5.02;68.40;101058.66;2024386;79;20295;-73
2022/01/21 11:51:34;;;;;;;5.06;1.91;;;;;;;5.04;68.57;101062.19;2026557;79;20367;-73
2022/01/21 11:54:37;;;;;;;4.44;1.34;;;;;;;5.04;68.69;101055.34;2026049;80;20927;-72
2022/01/21 11:57:40;;;;;;;5.10;1.29;;;;;;;5.00;69.07;101062.84;2024992;80;20382;-72
2022/01/21 12:00:44;;;;;;;6.05;1.23;;;;;;;4.98;69.09;101061.91;2024448;77;20775;-73
2022/01/21 12:03:53;;;;;;;4.47;1.20;;;;;;;4.98;69.90;101052.47;2026858;79;20419;-73
2022/01/21 12:07:00;;;;;;;3.60;0.90;;;;;;;5.02;70.32;101054.38;2027077;79;20368;-73
2022/01/21 12:10:07;;;;;;;4.05;1.09;;;;;;;5.05;69.89;101049.38;2027256;79;20249;-73
2022/01/21 12:13:16;;;;;;;5.46;0.90;;;;;;;5.08;69.42;101046.06;2027544;79;20363;-72
2022/01/21 12:17:16;;;;;;;3.79;0.70;;;;;;;5.06;68.50;101047.69;2025355;77;21572;-73
2022/01/21 12:20:11;;;;;;;4.99;1.02;;;;;;;5.05;68.31;101036.53;2030228;79;20355;-73
2022/01/21 12:23:15;;;;;;;2.89;1.04;;;;;;;5.12;68.85;101037.66;2027178;79;21387;-73
2022/01/21 12:26:20;;;;;;;4.95;1.04;;;;;;;5.16;68.22;101027.56;2026769;79;20334;-73
2022/01/21 12:29:25;;;;;;;3.36;0.99;;;;;;;5.35;68.14;101021.50;2027604;79;20342;-73
2022/01/21 12:33:14;;;;;;;7.05;1.00;;;;;;;5.54;67.97;101030.00;2024747;77;40389;-73
2022/01/21 12:36:26;;;;;;;3.71;0.80;;;;;;;5.64;67.91;101024.44;2021822;80;20453;-73
2022/01/21 12:39:50;;;;;;;8.50;0.99;;;;;;;5.58;66.81;101021.59;2022444;80;20328;-73
2022/01/21 12:42:53;;;;;;;4.29;1.09;;;;;;;5.43;67.35;101017.56;2021500;80;20338;-73
2022/01/21 12:46:04;;;;;;;4.19;1.08;;;;;;;5.27;66.35;101009.13;2020543;77;20710;-73
2022/01/21 12:49:35;;;;;;;5.57;1.26;;;;;;;5.22;67.11;101005.47;2022275;80;20372;-73
2022/01/21 12:53:26;;;;;;;2.79;0.82;;;;;;;5.12;67.07;101005.06;2022160;80;20954;-73
2022/01/21 12:56:06;;;;;;;6.09;1.08;;;;;;;5.07;67.73;101005.69;2021384;80;20366;-73
2022/01/21 12:59:28;;;;;;;5.53;1.00;;;;;;;4.95;68.49;100993.16;2021271;80;20349;-75
2022/01/21 13:02:33;;;;;;;3.58;0.88;;;;;;;4.87;68.63;100991.06;2014944;77;82549;-72
2022/01/21 13:05:44;;;;;;;2.31;0.70;;;;;;;4.87;68.86;100988.50;2017527;80;20543;-72
2022/01/21 13:09:09;;;;;;;4.10;1.05;;;;;;;4.95;68.35;100992.28;2020382;80;20382;-73
2022/01/21 13:12:13;;;;;;;2.60;0.70;;;;;;;5.04;67.58;100985.84;2021855;80;20850;-73
2022/01/21 13:15:16;;;;;;;4.53;0.70;;;;;;;5.20;67.59;100979.63;2015173;80;21321;-72
2022/01/21 13:18:24;;;;;;;1.73;0.76;;;;;;;5.36;67.57;100981.16;2021686;78;21621;-72
2022/01/21 13:21:27;;;;;;;1.76;0.58;;;;;;;5.45;66.27;100979.00;2021408;80;20311;-73
2022/01/21 13:24:34;;;;;;;3.46;0.65;;;;;;;5.50;65.10;100974.03;2021842;80;20284;-71
2022/01/21 13:27:52;;;;;;;3.60;0.82;;;;;;;5.45;64.66;100972.16;2020965;80;20344;-71
2022/01/21 13:31:04;;;;;;;5.22;0.69;;;;;;;5.41;65.74;100972.84;2018832;77;73711;-71
2022/01/21 13:34:32;;;;;;;3.76;1.50;;;;;;;5.40;66.70;100976.22;2023421;79;20953;-71
2022/01/21 13:37:35;;;;;;;2.16;0.76;;;;;;;5.40;66.40;100978.81;2026072;79;20420;-71
2022/01/21 13:40:44;;;;;;;1.61;0.63;;;;;;;5.38;66.80;100977.84;2027030;79;20348;-71
2022/01/21 13:43:49;;;;;;;1.79;0.80;;;;;;;5.29;66.52;100974.88;2026493;79;20413;-70
2022/01/21 13:46:51;;;;;;;4.75;1.11;;;;;;;5.31;66.56;100974.94;2025465;77;22191;-71
2022/01/21 13:49:57;;;;;;;2.09;0.86;;;;;;;5.30;66.05;100973.19;2026273;79;20425;-71
2022/01/21 13:53:01;;;;;;;2.46;0.88;;;;;;;5.29;65.44;100976.59;2027049;79;21118;-71
2022/01/21 13:56:07;;;;;;;3.56;1.05;;;;;;;5.30;65.55;100974.06;2023116;79;20326;-70
2022/01/21 13:59:10;;;;;;;2.01;0.66;;;;;;;5.32;65.39;100982.75;2027785;79;20323;-72
2022/01/21 14:02:15;;;;;;;2.46;0.79;;;;;;;5.31;65.33;100991.28;2025163;77;25814;-71
2022/01/21 14:05:19;;;;;;;3.50;0.61;;;;;;;5.36;66.13;100991.47;2027017;79;20499;-71
2022/01/21 14:08:48;;;;;;;1.50;0.64;;;;;;;5.41;66.00;100992.56;2026769;79;20317;-71
2022/01/21 14:11:51;;;;;;;1.69;0.74;;;;;;;5.43;65.83;100989.22;2027063;79;20388;-71
2022/01/21 14:14:54;;;;;;;1.41;0.60;;;;;;;5.44;66.29;100988.41;2027255;79;20235;-70
2022/01/21 14:17:58;;;;;;;2.30;0.81;;;;;;;5.45;66.23;100997.91;2024149;77;20912;-71
2022/01/21 14:21:04;;;;;;;4.05;0.60;;;;;;;5.46;66.62;100994.50;2027426;79;20295;-71
2022/01/21 14:24:12;;;;;;;3.17;0.79;;;;;;;5.45;66.67;100994.44;2026395;79;20370;-71
2022/01/21 14:27:29;;;;;;;4.06;0.59;;;;;;;5.44;66.37;101001.28;2026716;79;20310;-71
2022/01/21 14:30:40;;;;;;;1.51;0.66;;;;;;;5.43;65.93;101001.22;2024526;77;21793;-70
2022/01/21 14:33:43;;;;;;;2.19;0.60;;;;;;;5.39;65.95;101001.94;2027126;79;20926;-71
2022/01/21 14:37:06;;;;;;;2.51;0.60;;;;;;;5.32;65.50;101005.91;2026892;79;20346;-71
2022/01/21 14:40:13;;;;;;;1.85;0.38;;;;;;;5.24;65.51;100993.53;2026576;79;20356;-71
2022/01/21 14:43:18;;;;;;;1.95;0.50;;;;;;;5.18;65.50;100993.25;2027060;79;21008;-70
2022/01/21 14:46:26;;;;;;;1.16;0.49;;;;;;;5.12;65.34;100991.31;2024527;79;21232;-70
2022/01/21 14:49:30;;;;;;;1.13;0.50;;;;;;;5.10;66.19;101000.66;2026274;79;20299;-71
2022/01/21 14:52:46;;;;;;;1.49;0.40;;;;;;;5.07;66.44;101000.53;2030177;79;20354;-70
2022/01/21 14:55:50;;;;;;;1.70;0.60;;;;;;;5.04;66.19;101003.00;2026606;79;21095;-72
2022/01/21 14:59:19;;;;;;;2.05;0.60;;;;;;;5.01;66.66;101001.13;2022640;79;20319;-73
2022/01/21 15:02:35;;;;;;;2.63;0.44;;;;;;;5.00;66.27;101003.66;2025011;77;20366;-72
2022/01/21 15:05:42;;;;;;;1.30;0.50;;;;;;;4.98;66.93;101001.00;2026970;79;20365;-72
2022/01/21 15:08:53;;;;;;;1.74;0.50;;;;;;;4.96;67.43;100994.03;2026844;79;21182;-72
2022/01/21 15:12:11;;;;;;;3.29;0.70;;;;;;;4.95;67.66;101000.00;2027496;79;20890;-72
2022/01/21 15:15:29;;;;;;;0.71;0.30;;;;;;;4.92;67.63;101002.44;2025002;79;20310;-72
2022/01/21 15:18:32;;;;;;;2.09;0.50;;;;;;;4.88;67.53;101004.00;2027826;79;20292;-73